Time;durP1;ratioP1;P1;durP2;ratioP2;P2;SDS_P1;SDS_P2;PMS_P1;PMS_P2;Temp;Humidity;BMP_temperature;BMP_pressure;BME280_temperature;BME280_humidity;BME280_pressure;Samples;Min_cycle;Max_cycle;Signal;HPM_P1;HPM_P2
2024/01/25 00:02:12;;;;;;;;;;;16.90;59.30;;;;;;10108022;28;93991;-52
2024/01/25 00:07:14;;;;;;;;;;;16.80;59.50;;;;;;10110651;28;92939;-49
2024/01/25 00:12:16;;;;;;;;;;;16.80;59.40;;;;;;10112324;28;94836;-51
2024/01/25 00:17:18;;;;;;;;;;;16.90;59.10;;;;;;10125572;28;97171;-49
2024/01/25 00:22:20;;;;;;;;;;;16.80;58.70;;;;;;10114159;28;94655;-52
2024/01/25 00:27:22;;;;;;;;;;;16.80;58.50;;;;;;10099006;28;94446;-50
2024/01/25 00:32:24;;;;;;;;;;;16.90;58.30;;;;;;10101768;28;93465;-51
2024/01/25 00:37:26;;;;;;;;;;;16.90;58.00;;;;;;10101273;28;94463;-47
2024/01/25 00:42:28;;;;;;;;;;;16.90;57.80;;;;;;10117990;28;93613;-53
2024/01/25 00:47:30;;;;;;;;;;;16.80;57.50;;;;;;10123999;28;94462;-49
2024/01/25 00:52:32;;;;;;;;;;;16.80;57.50;;;;;;10112122;28;93838;-47
2024/01/25 00:57:34;;;;;;;;;;;16.80;58.10;;;;;;10116124;28;94496;-48
2024/01/25 01:02:39;;;;;;;;;;;16.80;58.30;;;;;;10117300;28;94522;-46
2024/01/25 01:07:40;;;;;;;;;;;16.70;58.00;;;;;;10095465;28;96978;-46
2024/01/25 01:12:43;;;;;;;;;;;16.70;57.70;;;;;;10100460;28;96673;-51
2024/01/25 01:17:45;;;;;;;;;;;16.70;57.50;;;;;;10105147;28;93516;-48
2024/01/25 01:22:47;;;;;;;;;;;16.70;57.30;;;;;;10121786;28;94057;-47
2024/01/25 01:27:49;;;;;;;;;;;16.70;57.10;;;;;;10123279;28;94055;-47
2024/01/25 01:32:51;;;;;;;;;;;16.70;56.90;;;;;;10121397;28;94496;-47
2024/01/25 01:37:53;;;;;;;;;;;16.70;56.60;;;;;;10117116;28;93883;-47
2024/01/25 01:42:59;;;;;;;;;;;16.70;56.50;;;;;;10105063;28;92421;-48
2024/01/25 01:48:01;;;;;;;;;;;16.70;56.70;;;;;;10107233;28;94608;-48
2024/01/25 01:53:03;;;;;;;;;;;16.60;57.30;;;;;;10098736;28;93266;-47
2024/01/25 01:58:05;;;;;;;;;;;16.60;57.30;;;;;;10112336;28;96852;-51
2024/01/25 02:03:07;;;;;;;;;;;16.60;57.10;;;;;;10605975;22;94956;-71
2024/01/25 02:08:09;;;;;;;;;;;16.60;57.00;;;;;;10134802;28;94855;-71
2024/01/25 02:13:11;;;;;;;;;;;16.60;57.70;;;;;;10113672;28;93676;-70
2024/01/25 02:18:14;;;;;;;;;;;16.50;56.50;;;;;;10117873;28;94740;-71
2024/01/25 02:23:16;;;;;;;;;;;16.50;56.40;;;;;;10113650;28;92929;-71
2024/01/25 02:28:18;;;;;;;;;;;16.50;56.10;;;;;;10113629;28;93628;-71
2024/01/25 02:33:20;;;;;;;;;;;16.50;56.00;;;;;;10103860;28;92902;-71
2024/01/25 02:38:22;;;;;;;;;;;16.50;55.80;;;;;;10115516;28;94762;-71
2024/01/25 02:43:24;;;;;;;;;;;16.50;56.20;;;;;;10109253;28;94035;-71
2024/01/25 02:48:26;;;;;;;;;;;16.40;56.70;;;;;;10113548;28;96055;-71
2024/01/25 02:53:28;;;;;;;;;;;16.40;56.70;;;;;;10114726;28;94911;-71
2024/01/25 02:58:29;;;;;;;;;;;16.40;56.50;;;;;;10114315;28;94216;-72
2024/01/25 03:03:31;;;;;;;;;;;16.40;56.30;;;;;;10113971;28;93666;-71
2024/01/25 03:08:33;;;;;;;;;;;16.40;56.10;;;;;;10118592;28;94627;-71
2024/01/25 03:13:35;;;;;;;;;;;16.40;55.90;;;;;;10120681;28;94221;-71
2024/01/25 03:18:37;;;;;;;;;;;16.40;55.80;;;;;;10116255;28;96225;-71
2024/01/25 03:23:39;;;;;;;;;;;16.40;55.60;;;;;;10116013;28;93050;-71
2024/01/25 03:28:41;;;;;;;;;;;16.30;55.40;;;;;;10117880;28;94794;-72
2024/01/25 03:33:42;;;;;;;;;;;16.40;55.40;;;;;;10112026;28;94564;-69
2024/01/25 03:38:45;;;;;;;;;;;16.30;55.80;;;;;;10100179;28;97128;-72
2024/01/25 03:43:47;;;;;;;;;;;16.30;56.30;;;;;;10121540;28;94449;-72
2024/01/25 03:48:48;;;;;;;;;;;16.30;56.30;;;;;;10155277;28;93939;-72
2024/01/25 03:53:52;;;;;;;;;;;16.30;56.00;;;;;;10130709;28;93528;-72
2024/01/25 03:58:54;;;;;;;;;;;16.20;55.90;;;;;;10121216;28;94128;-72
2024/01/25 04:03:56;;;;;;;;;;;16.20;55.60;;;;;;10121238;28;94411;-71
2024/01/25 04:08:58;;;;;;;;;;;16.30;55.50;;;;;;10124259;28;93445;-72
2024/01/25 04:14:00;;;;;;;;;;;16.30;55.40;;;;;;10122607;28;94107;-71
2024/01/25 04:19:02;;;;;;;;;;;16.30;55.10;;;;;;10117760;28;93495;-71
2024/01/25 04:24:04;;;;;;;;;;;16.30;55.10;;;;;;10118273;28;94466;-71
2024/01/25 04:29:06;;;;;;;;;;;16.30;55.10;;;;;;10116106;28;96853;-71
2024/01/25 04:34:08;;;;;;;;;;;16.30;55.60;;;;;;10120595;28;93852;-71
2024/01/25 04:39:10;;;;;;;;;;;16.30;56.00;;;;;;10122629;28;93994;-71
2024/01/25 04:44:15;;;;;;;;;;;16.20;55.90;;;;;;10117665;28;93801;-71
2024/01/25 04:49:16;;;;;;;;;;;16.30;55.70;;;;;;10124131;28;93685;-71
2024/01/25 04:54:18;;;;;;;;;;;16.20;55.30;;;;;;10118909;28;93640;-71
2024/01/25 04:59:20;;;;;;;;;;;16.20;55.10;;;;;;10111772;28;92665;-71
2024/01/25 05:04:22;;;;;;;;;;;16.30;55.10;;;;;;10121907;28;92766;-71
2024/01/25 05:09:24;;;;;;;;;;;16.30;55.00;;;;;;10122804;28;93506;-71
2024/01/25 05:14:26;;;;;;;;;;;16.20;54.60;;;;;;10116569;28;93828;-71
2024/01/25 05:19:27;;;;;;;;;;;16.20;54.60;;;;;;10117059;28;96894;-71
2024/01/25 05:24:30;;;;;;;;;;;16.20;54.70;;;;;;10109152;28;94314;-71
2024/01/25 05:29:31;;;;;;;;;;;16.20;55.10;;;;;;10120325;28;94578;-71
2024/01/25 05:34:33;;;;;;;;;;;16.10;55.40;;;;;;10117861;28;94791;-71
2024/01/25 05:39:35;;;;;;;;;;;16.10;55.70;;;;;;10114928;28;94688;-72
2024/01/25 05:44:37;;;;;;;;;;;16.20;55.80;;;;;;10133380;28;94290;-71
2024/01/25 05:49:40;;;;;;;;;;;16.20;55.90;;;;;;10123846;28;94749;-71
2024/01/25 05:54:43;;;;;;;;;;;16.50;55.70;;;;;;10150040;28;92796;-71
2024/01/25 05:59:45;;;;;;;;;;;16.70;55.30;;;;;;10134985;28;94618;-71
2024/01/25 06:04:47;;;;;;;;;;;16.90;55.20;;;;;;10131494;28;95022;-71
2024/01/25 06:09:49;;;;;;;;;;;17.00;55.00;;;;;;10116741;28;95940;-74
2024/01/25 06:14:52;;;;;;;;;;;17.00;55.10;;;;;;10128593;28;93427;-71
2024/01/25 06:19:54;;;;;;;;;;;16.90;55.20;;;;;;10124997;28;95231;-71
2024/01/25 06:24:55;;;;;;;;;;;16.90;55.50;;;;;;10129644;28;94132;-71
2024/01/25 06:29:57;;;;;;;;;;;16.90;55.40;;;;;;10118950;28;95255;-71
2024/01/25 06:34:59;;;;;;;;;;;16.90;55.80;;;;;;10134575;28;94860;-71
2024/01/25 06:40:02;;;;;;;;;;;16.80;56.10;;;;;;10127824;28;94410;-72
2024/01/25 06:45:04;;;;;;;;;;;16.70;56.30;;;;;;10123522;28;93827;-69
2024/01/25 06:50:06;;;;;;;;;;;16.70;56.50;;;;;;10124393;28;93117;-70
2024/01/25 06:55:09;;;;;;;;;;;16.70;56.70;;;;;;10110097;28;94012;-71
2024/01/25 07:00:12;;;;;;;;;;;16.60;56.90;;;;;;10113626;28;96193;-68
2024/01/25 07:05:15;;;;;;;;;;;16.60;57.80;;;;;;10119394;28;93717;-72
2024/01/25 07:10:18;;;;;;;;;;;16.60;59.60;;;;;;10121462;28;94395;-72
2024/01/25 07:15:20;;;;;;;;;;;16.60;59.50;;;;;;10119536;28;93122;-69
2024/01/25 07:20:21;;;;;;;;;;;16.60;59.50;;;;;;10142150;28;93321;-67
2024/01/25 07:25:25;;;;;;;;;;;16.70;59.60;;;;;;10119110;28;94559;-72
2024/01/25 07:30:27;;;;;;;;;;;16.80;59.60;;;;;;10117477;28;94225;-72
2024/01/25 07:35:29;;;;;;;;;;;16.80;59.40;;;;;;10122288;28;93712;-72
2024/01/25 07:40:31;;;;;;;;;;;16.80;59.20;;;;;;10129036;28;94506;-72
2024/01/25 07:45:32;;;;;;;;;;;16.80;59.10;;;;;;10121463;28;93372;-71
2024/01/25 07:50:34;;;;;;;;;;;16.90;59.20;;;;;;10118517;28;96883;-71
2024/01/25 07:55:37;;;;;;;;;;;16.80;59.10;;;;;;10119267;28;93755;-71
2024/01/25 08:00:39;;;;;;;;;;;16.80;59.10;;;;;;10130821;28;94259;-72
2024/01/25 08:05:41;;;;;;;;;;;16.80;59.60;;;;;;10120307;28;94880;-72
2024/01/25 08:10:51;;;;;;;;;;;16.70;59.20;;;;;;10119098;28;93417;-71
2024/01/25 08:15:53;;;;;;;;;;;16.70;59.00;;;;;;10121069;28;93930;-71
2024/01/25 08:20:55;;;;;;;;;;;16.80;59.00;;;;;;10117584;28;95073;-72
2024/01/25 08:25:58;;;;;;;;;;;16.80;58.80;;;;;;10112810;28;92934;-71
2024/01/25 08:30:59;;;;;;;;;;;16.90;58.60;;;;;;10121456;28;94646;-70
2024/01/25 08:36:02;;;;;;;;;;;17.10;58.40;;;;;;10117099;28;93644;-71
2024/01/25 08:41:04;;;;;;;;;;;17.20;58.20;;;;;;10116325;28;96971;-71
2024/01/25 08:46:06;;;;;;;;;;;17.30;58.00;;;;;;10122957;28;94423;-71
2024/01/25 08:51:08;;;;;;;;;;;17.40;57.70;;;;;;10108930;28;93499;-71
2024/01/25 08:56:10;;;;;;;;;;;17.40;57.50;;;;;;10116988;28;94026;-71
2024/01/25 09:01:12;;;;;;;;;;;17.40;57.40;;;;;;10123130;28;93778;-71
2024/01/25 09:06:15;;;;;;;;;;;17.40;57.30;;;;;;10119894;28;94245;-71
2024/01/25 09:11:18;;;;;;;;;;;17.30;57.40;;;;;;10117296;28;95527;-72
2024/01/25 09:16:20;;;;;;;;;;;17.30;57.50;;;;;;10117139;28;93277;-72
2024/01/25 09:21:21;;;;;;;;;;;17.30;57.50;;;;;;10117318;28;93654;-70
2024/01/25 09:26:23;;;;;;;;;;;17.30;57.90;;;;;;10120405;28;93484;-73
2024/01/25 09:31:25;;;;;;;;;;;17.30;58.50;;;;;;10106744;28;95094;-72
2024/01/25 09:36:27;;;;;;;;;;;17.30;58.00;;;;;;10112763;28;94426;-73
2024/01/25 09:41:29;;;;;;;;;;;17.30;57.90;;;;;;10110384;28;93856;-72
2024/01/25 09:46:31;;;;;;;;;;;17.30;57.80;;;;;;10129386;28;93450;-71
2024/01/25 09:51:37;;;;;;;;;;;17.20;57.60;;;;;;10104472;28;93345;-72
2024/01/25 09:56:41;;;;;;;;;;;17.20;57.60;;;;;;10122949;28;94661;-71
2024/01/25 10:01:43;;;;;;;;;;;17.20;57.60;;;;;;10139563;28;93932;-71
2024/01/25 10:06:45;;;;;;;;;;;17.10;57.60;;;;;;10149819;28;91938;-71
2024/01/25 10:11:49;;;;;;;;;;;17.10;57.70;;;;;;10125283;28;94836;-71
2024/01/25 10:17:04;;;;;;;;;;;17.10;57.60;;;;;;10120181;28;94404;-71
2024/01/25 10:22:08;;;;;;;;;;;17.10;57.60;;;;;;10116534;28;96037;-71
2024/01/25 10:27:12;;;;;;;;;;;17.10;57.60;;;;;;10124480;28;93814;-72
2024/01/25 10:32:14;;;;;;;;;;;17.00;57.60;;;;;;10114633;28;94749;-71
2024/01/25 10:37:17;;;;;;;;;;;17.00;57.60;;;;;;10114085;28;93444;-71
2024/01/25 10:42:19;;;;;;;;;;;17.00;57.60;;;;;;10118689;28;95533;-71
2024/01/25 10:47:21;;;;;;;;;;;16.90;57.60;;;;;;10099787;28;94467;-71
2024/01/25 10:52:23;;;;;;;;;;;16.90;57.60;;;;;;10123688;28;96063;-72
2024/01/25 10:57:26;;;;;;;;;;;16.90;57.60;;;;;;10144684;28;93771;-72
2024/01/25 11:02:27;;;;;;;;;;;16.90;57.60;;;;;;10105848;28;93942;-72
2024/01/25 11:07:40;;;;;;;;;;;17.00;57.60;;;;;;10109103;28;93707;-72
2024/01/25 11:12:54;;;;;;;;;;;16.90;57.60;;;;;;10118390;28;95927;-72
2024/01/25 11:17:57;;;;;;;;;;;16.90;57.70;;;;;;10113154;28;94526;-72
2024/01/25 11:23:01;;;;;;;;;;;17.00;57.80;;;;;;10104726;28;93341;-70
2024/01/25 11:28:05;;;;;;;;;;;16.90;57.60;;;;;;10122530;28;94408;-70
2024/01/25 11:33:08;;;;;;;;;;;16.90;57.60;;;;;;10105528;28;94886;-70
2024/01/25 11:38:10;;;;;;;;;;;16.90;57.60;;;;;;10117701;28;93777;-69
2024/01/25 11:43:14;;;;;;;;;;;16.90;57.80;;;;;;10124490;28;93405;-71
2024/01/25 11:48:18;;;;;;;;;;;16.90;57.80;;;;;;10124204;28;92148;-70
2024/01/25 11:53:20;;;;;;;;;;;16.90;58.80;;;;;;10124185;28;94148;-70
2024/01/25 11:58:22;;;;;;;;;;;17.00;58.80;;;;;;10114849;28;93666;-71
2024/01/25 12:03:24;;;;;;;;;;;17.00;59.30;;;;;;10116237;28;96855;-72
2024/01/25 12:08:26;;;;;;;;;;;17.00;58.70;;;;;;10103967;28;93489;-74
2024/01/25 12:13:31;;;;;;;;;;;17.00;58.50;;;;;;10121143;28;94844;-73
2024/01/25 12:18:34;;;;;;;;;;;17.00;58.50;;;;;;10123098;28;95026;-72
2024/01/25 12:23:37;;;;;;;;;;;17.00;58.60;;;;;;10116158;28;93340;-73
2024/01/25 12:28:40;;;;;;;;;;;17.00;58.50;;;;;;10115810;28;94394;-73
2024/01/25 12:33:43;;;;;;;;;;;17.00;58.60;;;;;;10112832;28;94688;-72
2024/01/25 12:38:46;;;;;;;;;;;17.00;58.70;;;;;;10111317;28;92964;-72
2024/01/25 12:43:48;;;;;;;;;;;17.00;58.70;;;;;;10116374;28;93879;-70
2024/01/25 12:48:54;;;;;;;;;;;17.00;58.90;;;;;;10116662;28;94785;-73
2024/01/25 12:53:57;;;;;;;;;;;17.00;58.90;;;;;;10115199;28;95822;-72
2024/01/25 12:58:59;;;;;;;;;;;17.00;58.90;;;;;;10112475;28;95561;-74
2024/01/25 13:04:01;;;;;;;;;;;17.00;58.90;;;;;;10128320;28;93299;-70
2024/01/25 13:09:03;;;;;;;;;;;17.00;58.90;;;;;;10105394;28;94431;-72
2024/01/25 13:14:05;;;;;;;;;;;17.00;58.90;;;;;;10138630;28;94754;-72
2024/01/25 13:19:08;;;;;;;;;;;17.10;59.00;;;;;;10121039;28;93846;-72
2024/01/25 13:24:10;;;;;;;;;;;17.10;59.00;;;;;;10116042;28;94264;-72
2024/01/25 13:29:12;;;;;;;;;;;17.10;58.90;;;;;;10108811;28;93721;-70
2024/01/25 13:34:14;;;;;;;;;;;17.10;58.90;;;;;;10104681;28;94092;-70
2024/01/25 13:39:16;;;;;;;;;;;17.10;58.80;;;;;;10112072;28;93977;-70
2024/01/25 13:44:18;;;;;;;;;;;17.10;58.70;;;;;;10116091;28;96103;-70
2024/01/25 13:49:20;;;;;;;;;;;17.10;58.60;;;;;;10109905;28;93477;-70
2024/01/25 13:54:22;;;;;;;;;;;17.10;58.60;;;;;;10112049;28;94483;-70
2024/01/25 13:59:25;;;;;;;;;;;17.10;58.60;;;;;;10112932;28;94103;-70
2024/01/25 14:04:27;;;;;;;;;;;17.10;58.50;;;;;;10112233;28;93906;-70
2024/01/25 14:09:37;;;;;;;;;;;17.00;58.50;;;;;;10122766;28;93493;-70
2024/01/25 14:14:39;;;;;;;;;;;17.00;58.40;;;;;;10130285;28;94161;-70
2024/01/25 14:19:41;;;;;;;;;;;17.00;58.40;;;;;;10135866;28;93742;-71
2024/01/25 14:24:44;;;;;;;;;;;17.00;58.30;;;;;;10118149;28;94275;-70
2024/01/25 14:29:46;;;;;;;;;;;17.00;58.30;;;;;;10124920;28;93290;-71
2024/01/25 14:34:48;;;;;;;;;;;17.00;58.30;;;;;;10116280;28;95007;-71
2024/01/25 14:39:50;;;;;;;;;;;16.90;58.30;;;;;;10114554;28;94631;-71
2024/01/25 14:45:12;;;;;;;;;;;17.00;58.30;;;;;;10113955;28;93278;-71
2024/01/25 14:50:14;;;;;;;;;;;17.10;58.10;;;;;;10120177;28;93577;-71
2024/01/25 14:55:16;;;;;;;;;;;17.30;57.90;;;;;;10118878;28;93506;-71
2024/01/25 15:00:21;;;;;;;;;;;17.50;57.40;;;;;;10101138;28;93647;-71
2024/01/25 15:05:23;;;;;;;;;;;17.70;57.10;;;;;;10116591;28;94418;-71
2024/01/25 15:10:25;;;;;;;;;;;17.80;56.80;;;;;;10111702;28;94405;-71
2024/01/25 15:15:30;;;;;;;;;;;17.90;56.60;;;;;;10104882;28;93639;-71
2024/01/25 15:20:35;;;;;;;;;;;18.00;56.30;;;;;;10109562;28;93559;-71
2024/01/25 15:25:37;;;;;;;;;;;18.10;56.10;;;;;;10104728;28;95894;-71
2024/01/25 15:30:39;;;;;;;;;;;18.00;56.00;;;;;;10110492;28;94622;-70
2024/01/25 15:35:41;;;;;;;;;;;18.00;56.00;;;;;;10112485;28;95065;-71
2024/01/25 15:40:43;;;;;;;;;;;18.00;56.00;;;;;;10124941;28;93845;-70
2024/01/25 15:45:45;;;;;;;;;;;18.00;56.00;;;;;;10112244;28;93537;-71
2024/01/25 15:50:47;;;;;;;;;;;18.00;56.10;;;;;;10116865;28;93775;-70
2024/01/25 15:55:50;;;;;;;;;;;17.90;56.00;;;;;;10124345;28;94810;-70
2024/01/25 16:00:51;;;;;;;;;;;17.90;56.20;;;;;;10115642;28;94291;-71
2024/01/25 16:05:54;;;;;;;;;;;17.90;56.30;;;;;;10115443;28;94697;-71
2024/01/25 16:10:56;;;;;;;;;;;18.00;56.30;;;;;;10110976;28;94687;-71
2024/01/25 16:15:58;;;;;;;;;;;18.20;56.20;;;;;;10144844;28;96996;-71
2024/01/25 16:21:00;;;;;;;;;;;18.40;55.80;;;;;;10114198;28;94464;-71
2024/01/25 16:26:02;;;;;;;;;;;18.70;55.60;;;;;;10130828;28;94432;-71
2024/01/25 16:31:04;;;;;;;;;;;18.80;55.30;;;;;;10118633;28;95048;-71
2024/01/25 16:36:06;;;;;;;;;;;18.90;55.10;;;;;;10117690;28;93655;-72
2024/01/25 16:41:09;;;;;;;;;;;19.00;54.90;;;;;;10108886;28;93434;-71
2024/01/25 16:46:10;;;;;;;;;;;19.10;54.80;;;;;;10106225;28;95497;-71
2024/01/25 16:51:12;;;;;;;;;;;19.10;54.80;;;;;;10123844;28;93125;-67
2024/01/25 16:56:14;;;;;;;;;;;19.00;55.00;;;;;;10106963;28;94366;-71
2024/01/25 17:01:16;;;;;;;;;;;19.00;56.00;;;;;;10110617;28;93807;-70
2024/01/25 17:06:18;;;;;;;;;;;19.00;59.40;;;;;;10111047;28;96071;-72
2024/01/25 17:11:20;;;;;;;;;;;19.10;64.20;;;;;;10116611;28;94482;-69
2024/01/25 17:16:22;;;;;;;;;;;19.20;67.60;;;;;;10114224;28;93824;-71
2024/01/25 17:21:27;;;;;;;;;;;19.10;67.20;;;;;;10115596;28;94132;-66
2024/01/25 17:26:29;;;;;;;;;;;19.10;64.00;;;;;;10113593;28;97012;-68
2024/01/25 17:31:31;;;;;;;;;;;19.10;63.00;;;;;;10112518;28;93989;-71
2024/01/25 17:36:33;;;;;;;;;;;19.20;62.30;;;;;;10107779;28;94588;-69
2024/01/25 17:41:35;;;;;;;;;;;19.20;62.00;;;;;;10107535;28;93114;-69
2024/01/25 17:46:37;;;;;;;;;;;19.20;62.00;;;;;;10101721;28;94445;-69
2024/01/25 17:51:39;;;;;;;;;;;19.20;61.30;;;;;;10111080;28;93724;-71
2024/01/25 17:56:41;;;;;;;;;;;19.20;60.90;;;;;;10120505;28;96203;-70
2024/01/25 18:01:43;;;;;;;;;;;19.30;60.50;;;;;;10117073;28;94466;-71
2024/01/25 18:06:45;;;;;;;;;;;19.40;60.00;;;;;;10112033;28;93378;-70
2024/01/25 18:11:47;;;;;;;;;;;19.50;59.60;;;;;;10119512;28;93482;-71
2024/01/25 18:16:49;;;;;;;;;;;19.60;59.40;;;;;;10111812;28;93379;-71
2024/01/25 18:21:53;;;;;;;;;;;19.50;59.20;;;;;;10113283;28;94471;-73
2024/01/25 18:26:57;;;;;;;;;;;19.50;59.20;;;;;;10130379;28;94588;-72
2024/01/25 18:31:59;;;;;;;;;;;19.50;59.10;;;;;;10128769;28;92480;-72
2024/01/25 18:37:01;;;;;;;;;;;19.60;58.90;;;;;;10133384;28;93276;-73
2024/01/25 18:42:03;;;;;;;;;;;19.60;58.70;;;;;;10116477;28;94548;-72
2024/01/25 18:47:07;;;;;;;;;;;19.50;58.60;;;;;;10115521;28;96325;-73
2024/01/25 18:52:09;;;;;;;;;;;19.40;58.50;;;;;;10117110;28;94510;-73
2024/01/25 18:57:11;;;;;;;;;;;19.40;58.70;;;;;;10117913;28;94013;-70
2024/01/25 19:02:14;;;;;;;;;;;19.40;58.70;;;;;;10116034;28;93764;-70
2024/01/25 19:07:16;;;;;;;;;;;19.50;59.70;;;;;;10121222;28;93596;-70
2024/01/25 19:12:18;;;;;;;;;;;19.70;59.40;;;;;;10126801;28;93380;-70
2024/01/25 19:17:20;;;;;;;;;;;19.70;59.00;;;;;;10136539;28;94743;-70
2024/01/25 19:22:21;;;;;;;;;;;19.70;58.80;;;;;;10149997;28;92869;-71
2024/01/25 19:27:23;;;;;;;;;;;19.70;59.10;;;;;;10120593;28;94816;-72
2024/01/25 19:32:26;;;;;;;;;;;19.60;58.90;;;;;;10116768;28;93470;-71
2024/01/25 19:37:28;;;;;;;;;;;19.50;59.00;;;;;;10136277;28;96226;-70
2024/01/25 19:42:29;;;;;;;;;;;19.50;59.00;;;;;;10127167;28;94560;-70
2024/01/25 19:47:31;;;;;;;;;;;19.50;59.00;;;;;;10108010;28;94940;-71
2024/01/25 19:52:33;;;;;;;;;;;19.40;59.10;;;;;;10137392;28;93515;-71
2024/01/25 19:57:35;;;;;;;;;;;19.40;59.30;;;;;;10125685;28;93471;-70
2024/01/25 20:02:37;;;;;;;;;;;19.40;59.30;;;;;;10121018;28;95070;-70
2024/01/25 20:07:39;;;;;;;;;;;19.40;59.20;;;;;;10113777;28;94348;-71
2024/01/25 20:12:42;;;;;;;;;;;19.60;59.10;;;;;;10123891;28;93068;-71
2024/01/25 20:17:44;;;;;;;;;;;19.60;58.90;;;;;;10123176;28;94882;-71
2024/01/25 20:22:46;;;;;;;;;;;19.60;58.90;;;;;;10115399;28;92703;-72
2024/01/25 20:27:48;;;;;;;;;;;19.50;59.00;;;;;;10118230;28;96242;-71
2024/01/25 20:32:50;;;;;;;;;;;19.50;59.00;;;;;;10135242;28;93826;-71
2024/01/25 20:37:53;;;;;;;;;;;19.60;58.90;;;;;;10124006;28;93880;-71
2024/01/25 20:42:56;;;;;;;;;;;19.60;58.80;;;;;;10131914;28;93344;-71
2024/01/25 20:47:58;;;;;;;;;;;19.50;58.80;;;;;;10119305;28;94750;-71
2024/01/25 20:53:00;;;;;;;;;;;19.40;59.00;;;;;;10137106;28;99008;-71
2024/01/25 20:58:02;;;;;;;;;;;19.30;59.30;;;;;;10112499;28;95038;-71
2024/01/25 21:03:04;;;;;;;;;;;19.10;59.40;;;;;;10125713;28;93479;-71
2024/01/25 21:08:07;;;;;;;;;;;19.00;59.60;;;;;;10119899;28;94216;-71
2024/01/25 21:13:12;;;;;;;;;;;19.00;59.90;;;;;;10126532;28;94479;-71
2024/01/25 21:18:38;;;;;;;;;;;18.90;60.00;;;;;;10106421;28;115321;-71
2024/01/25 21:23:40;;;;;;;;;;;18.80;60.30;;;;;;10117903;28;94604;-71
2024/01/25 21:28:44;;;;;;;;;;;18.70;60.40;;;;;;10124444;28;94520;-71
2024/01/25 21:33:47;;;;;;;;;;;18.60;60.60;;;;;;10132699;28;94502;-71
2024/01/25 21:38:50;;;;;;;;;;;18.50;61.70;;;;;;10125068;28;94287;-73
2024/01/25 21:43:52;;;;;;;;;;;18.50;60.90;;;;;;10150833;28;94642;-73
2024/01/25 21:48:54;;;;;;;;;;;18.50;61.00;;;;;;10110845;28;94023;-73
2024/01/25 21:53:56;;;;;;;;;;;18.40;61.10;;;;;;10103580;28;92932;-73
2024/01/25 21:58:58;;;;;;;;;;;18.30;61.10;;;;;;10121212;28;94506;-73
2024/01/25 22:03:59;;;;;;;;;;;18.30;61.10;;;;;;10109840;28;93745;-73
2024/01/25 22:09:01;;;;;;;;;;;18.20;61.00;;;;;;10113469;28;96932;-73
2024/01/25 22:14:05;;;;;;;;;;;18.20;61.20;;;;;;10109591;28;93360;-72
2024/01/25 22:19:07;;;;;;;;;;;18.10;61.20;;;;;;10131387;28;94295;-72
2024/01/25 22:24:09;;;;;;;;;;;18.10;61.30;;;;;;10112683;28;94077;-73
2024/01/25 22:29:11;;;;;;;;;;;18.00;61.40;;;;;;10119517;28;94396;-73
2024/01/25 22:34:12;;;;;;;;;;;18.00;61.40;;;;;;10113972;28;93372;-73
2024/01/25 22:39:21;;;;;;;;;;;17.90;61.40;;;;;;10119144;28;94353;-73
2024/01/25 22:44:23;;;;;;;;;;;17.90;61.50;;;;;;10126339;28;93806;-72
2024/01/25 22:49:27;;;;;;;;;;;17.80;61.60;;;;;;10132517;28;94415;-73
2024/01/25 22:54:28;;;;;;;;;;;17.80;61.60;;;;;;10141928;28;94734;-73
2024/01/25 22:59:30;;;;;;;;;;;17.70;61.60;;;;;;10124324;28;96345;-73
2024/01/25 23:04:32;;;;;;;;;;;17.70;61.70;;;;;;10120998;28;94659;-73
2024/01/25 23:09:34;;;;;;;;;;;17.70;61.80;;;;;;10107407;28;93436;-73
2024/01/25 23:14:36;;;;;;;;;;;17.60;61.70;;;;;;10119552;28;93974;-72
2024/01/25 23:19:38;;;;;;;;;;;17.50;61.30;;;;;;10127422;28;94684;-73
2024/01/25 23:24:40;;;;;;;;;;;17.60;61.00;;;;;;10124302;28;94373;-73
2024/01/25 23:29:42;;;;;;;;;;;17.60;60.60;;;;;;10116510;28;95773;-72
2024/01/25 23:34:44;;;;;;;;;;;17.50;60.20;;;;;;10105762;28;93016;-72
2024/01/25 23:39:47;;;;;;;;;;;17.50;60.00;;;;;;10113062;28;94064;-72
2024/01/25 23:44:49;;;;;;;;;;;17.50;59.70;;;;;;10120948;28;94378;-72
2024/01/25 23:49:51;;;;;;;;;;;17.60;59.50;;;;;;10122366;28;96950;-72
2024/01/25 23:54:55;;;;;;;;;;;17.50;59.20;;;;;;10122586;28;94210;-73
2024/01/25 23:59:57;;;;;;;;;;;17.40;59.30;;;;;;10112412;28;93748;-73
